sensor_id;sensor_type;location;lat;lon;timestamp;temperature;humidity
30694;DHT22;17446;48.022;-1.740;2022-12-18T00:01:59;0.70;99.90
30694;DHT22;17446;48.022;-1.740;2022-12-18T00:04:26;0.70;99.90
30694;DHT22;17446;48.022;-1.740;2022-12-18T00:06:52;0.80;99.90
30694;DHT22;17446;48.022;-1.740;2022-12-18T00:09:19;0.70;99.90
30694;DHT22;17446;48.022;-1.740;2022-12-18T00:11:44;0.80;99.90
30694;DHT22;17446;48.022;-1.740;2022-12-18T00:14:12;0.70;99.90
30694;DHT22;17446;48.022;-1.740;2022-12-18T00:16:38;0.70;99.90
30694;DHT22;17446;48.022;-1.740;2022-12-18T00:19:05;0.80;99.90
30694;DHT22;17446;48.022;-1.740;2022-12-18T00:21:32;0.70;99.90
30694;DHT22;17446;48.022;-1.740;2022-12-18T00:23:59;0.70;99.90
30694;DHT22;17446;48.022;-1.740;2022-12-18T00:26:28;0.80;99.90
30694;DHT22;17446;48.022;-1.740;2022-12-18T00:28:55;0.80;99.90
30694;DHT22;17446;48.022;-1.740;2022-12-18T00:31:24;0.80;99.90
30694;DHT22;17446;48.022;-1.740;2022-12-18T00:33:50;0.80;99.90
30694;DHT22;17446;48.022;-1.740;2022-12-18T00:36:18;0.80;99.90
30694;DHT22;17446;48.022;-1.740;2022-12-18T00:38:45;0.80;99.90
30694;DHT22;17446;48.022;-1.740;2022-12-18T00:41:13;0.80;99.90
30694;DHT22;17446;48.022;-1.740;2022-12-18T00:43:59;0.80;99.90
30694;DHT22;17446;48.022;-1.740;2022-12-18T00:46:25;0.80;99.90
30694;DHT22;17446;48.022;-1.740;2022-12-18T00:48:50;0.80;99.90
30694;DHT22;17446;48.022;-1.740;2022-12-18T00:51:16;0.80;99.90
30694;DHT22;17446;48.022;-1.740;2022-12-18T00:53:41;0.80;99.90
30694;DHT22;17446;48.022;-1.740;2022-12-18T00:56:07;0.80;99.90
30694;DHT22;17446;48.022;-1.740;2022-12-18T00:58:32;0.80;99.90
30694;DHT22;17446;48.022;-1.740;2022-12-18T01:01:01;0.80;99.90
30694;DHT22;17446;48.022;-1.740;2022-12-18T01:03:26;0.70;99.90
30694;DHT22;17446;48.022;-1.740;2022-12-18T01:05:52;0.80;99.90
30694;DHT22;17446;48.022;-1.740;2022-12-18T01:08:17;0.70;99.90
30694;DHT22;17446;48.022;-1.740;2022-12-18T01:10:43;0.80;99.90
30694;DHT22;17446;48.022;-1.740;2022-12-18T01:13:09;0.70;99.90
30694;DHT22;17446;48.022;-1.740;2022-12-18T01:15:34;0.70;99.90
30694;DHT22;17446;48.022;-1.740;2022-12-18T01:18:00;0.70;99.90
30694;DHT22;17446;48.022;-1.740;2022-12-18T01:20:25;0.70;99.90
30694;DHT22;17446;48.022;-1.740;2022-12-18T01:22:51;0.80;99.90
30694;DHT22;17446;48.022;-1.740;2022-12-18T01:25:17;0.80;99.90
30694;DHT22;17446;48.022;-1.740;2022-12-18T01:27:42;0.80;99.90
30694;DHT22;17446;48.022;-1.740;2022-12-18T01:30:08;0.80;99.90
30694;DHT22;17446;48.022;-1.740;2022-12-18T01:32:34;0.80;99.90
30694;DHT22;17446;48.022;-1.740;2022-12-18T01:35:00;0.80;99.90
30694;DHT22;17446;48.022;-1.740;2022-12-18T01:37:26;0.90;99.90
30694;DHT22;17446;48.022;-1.740;2022-12-18T01:39:52;0.90;99.90
30694;DHT22;17446;48.022;-1.740;2022-12-18T01:42:19;0.90;99.90
30694;DHT22;17446;48.022;-1.740;2022-12-18T01:52:37;0.80;99.90
30694;DHT22;17446;48.022;-1.740;2022-12-18T01:55:04;0.80;99.90
30694;DHT22;17446;48.022;-1.740;2022-12-18T01:57:31;0.70;99.90
30694;DHT22;17446;48.022;-1.740;2022-12-18T02:00:00;0.70;99.90
30694;DHT22;17446;48.022;-1.740;2022-12-18T02:02:30;0.70;99.90
30694;DHT22;17446;48.022;-1.740;2022-12-18T02:04:56;0.70;99.90
30694;DHT22;17446;48.022;-1.740;2022-12-18T02:10:30;0.70;99.90
30694;DHT22;17446;48.022;-1.740;2022-12-18T02:13:06;0.80;99.90
30694;DHT22;17446;48.022;-1.740;2022-12-18T02:15:43;0.80;99.90
30694;DHT22;17446;48.022;-1.740;2022-12-18T02:18:18;0.80;99.90
30694;DHT22;17446;48.022;-1.740;2022-12-18T02:20:49;0.80;99.90
30694;DHT22;17446;48.022;-1.740;2022-12-18T02:23:43;0.80;99.90
30694;DHT22;17446;48.022;-1.740;2022-12-18T02:26:30;0.90;99.90
30694;DHT22;17446;48.022;-1.740;2022-12-18T02:29:03;0.90;99.90
30694;DHT22;17446;48.022;-1.740;2022-12-18T02:31:36;0.90;99.90
30694;DHT22;17446;48.022;-1.740;2022-12-18T02:34:04;1.00;99.90
30694;DHT22;17446;48.022;-1.740;2022-12-18T02:36:32;0.90;99.90
30694;DHT22;17446;48.022;-1.740;2022-12-18T02:39:00;0.90;99.90
30694;DHT22;17446;48.022;-1.740;2022-12-18T02:41:26;0.90;99.90
30694;DHT22;17446;48.022;-1.740;2022-12-18T02:43:56;0.90;99.90
30694;DHT22;17446;48.022;-1.740;2022-12-18T02:55:08;0.90;99.90
30694;DHT22;17446;48.022;-1.740;2022-12-18T02:57:56;0.90;99.90
30694;DHT22;17446;48.022;-1.740;2022-12-18T03:00:43;0.90;99.90
30694;DHT22;17446;48.022;-1.740;2022-12-18T03:05:55;0.90;99.90
30694;DHT22;17446;48.022;-1.740;2022-12-18T03:08:27;0.90;99.90
30694;DHT22;17446;48.022;-1.740;2022-12-18T03:11:00;1.00;99.90
30694;DHT22;17446;48.022;-1.740;2022-12-18T03:13:36;1.00;99.90
30694;DHT22;17446;48.022;-1.740;2022-12-18T03:16:05;1.10;99.90
30694;DHT22;17446;48.022;-1.740;2022-12-18T03:18:41;1.10;99.90
30694;DHT22;17446;48.022;-1.740;2022-12-18T03:21:09;1.10;99.90
30694;DHT22;17446;48.022;-1.740;2022-12-18T03:23:48;1.20;99.90
30694;DHT22;17446;48.022;-1.740;2022-12-18T03:26:18;1.20;99.90
30694;DHT22;17446;48.022;-1.740;2022-12-18T03:28:54;1.10;99.90
30694;DHT22;17446;48.022;-1.740;2022-12-18T03:31:24;1.10;99.90
30694;DHT22;17446;48.022;-1.740;2022-12-18T03:33:57;1.10;99.90
30694;DHT22;17446;48.022;-1.740;2022-12-18T03:36:24;1.10;99.90
30694;DHT22;17446;48.022;-1.740;2022-12-18T03:38:50;1.10;99.90
30694;DHT22;17446;48.022;-1.740;2022-12-18T03:41:21;1.10;99.90
30694;DHT22;17446;48.022;-1.740;2022-12-18T03:44:17;1.10;99.90
30694;DHT22;17446;48.022;-1.740;2022-12-18T03:46:58;1.10;99.90
30694;DHT22;17446;48.022;-1.740;2022-12-18T03:54:52;1.30;99.90
30694;DHT22;17446;48.022;-1.740;2022-12-18T03:57:21;1.30;99.90
30694;DHT22;17446;48.022;-1.740;2022-12-18T03:59:51;1.30;99.90
30694;DHT22;17446;48.022;-1.740;2022-12-18T04:02:19;1.30;99.90
30694;DHT22;17446;48.022;-1.740;2022-12-18T04:04:46;1.30;99.90
30694;DHT22;17446;48.022;-1.740;2022-12-18T04:07:13;1.30;99.90
30694;DHT22;17446;48.022;-1.740;2022-12-18T04:09:41;1.30;99.90
30694;DHT22;17446;48.022;-1.740;2022-12-18T04:12:08;1.30;99.90
30694;DHT22;17446;48.022;-1.740;2022-12-18T04:14:34;1.30;99.90
30694;DHT22;17446;48.022;-1.740;2022-12-18T04:17:01;1.40;99.90
30694;DHT22;17446;48.022;-1.740;2022-12-18T04:19:27;1.40;99.90
30694;DHT22;17446;48.022;-1.740;2022-12-18T04:21:53;1.40;99.90
30694;DHT22;17446;48.022;-1.740;2022-12-18T04:24:19;1.50;99.90
30694;DHT22;17446;48.022;-1.740;2022-12-18T04:26:45;1.40;99.90
30694;DHT22;17446;48.022;-1.740;2022-12-18T04:29:10;1.50;99.90
30694;DHT22;17446;48.022;-1.740;2022-12-18T04:31:36;1.50;99.90
30694;DHT22;17446;48.022;-1.740;2022-12-18T04:34:02;1.50;99.90
30694;DHT22;17446;48.022;-1.740;2022-12-18T04:36:28;1.50;99.90
30694;DHT22;17446;48.022;-1.740;2022-12-18T04:38:54;1.50;99.90
30694;DHT22;17446;48.022;-1.740;2022-12-18T04:41:20;1.50;99.90
30694;DHT22;17446;48.022;-1.740;2022-12-18T04:43:45;1.50;99.90
30694;DHT22;17446;48.022;-1.740;2022-12-18T04:46:11;1.60;99.90
30694;DHT22;17446;48.022;-1.740;2022-12-18T04:48:37;1.60;99.90
30694;DHT22;17446;48.022;-1.740;2022-12-18T04:51:03;1.60;99.90
30694;DHT22;17446;48.022;-1.740;2022-12-18T04:53:29;1.60;99.90
30694;DHT22;17446;48.022;-1.740;2022-12-18T04:56:08;1.50;99.90
30694;DHT22;17446;48.022;-1.740;2022-12-18T04:58:34;1.50;99.90
30694;DHT22;17446;48.022;-1.740;2022-12-18T05:01:00;1.50;99.90
30694;DHT22;17446;48.022;-1.740;2022-12-18T05:03:26;1.60;99.90
30694;DHT22;17446;48.022;-1.740;2022-12-18T05:05:52;1.60;99.90
30694;DHT22;17446;48.022;-1.740;2022-12-18T05:08:18;1.60;99.90
30694;DHT22;17446;48.022;-1.740;2022-12-18T05:10:44;1.70;99.90
30694;DHT22;17446;48.022;-1.740;2022-12-18T05:13:09;1.80;99.90
30694;DHT22;17446;48.022;-1.740;2022-12-18T05:15:35;1.80;99.90
30694;DHT22;17446;48.022;-1.740;2022-12-18T05:18:02;1.70;99.90
30694;DHT22;17446;48.022;-1.740;2022-12-18T05:20:28;1.70;99.90
30694;DHT22;17446;48.022;-1.740;2022-12-18T05:22:54;1.70;99.90
30694;DHT22;17446;48.022;-1.740;2022-12-18T05:25:20;1.80;99.90
30694;DHT22;17446;48.022;-1.740;2022-12-18T05:27:47;1.80;99.90
30694;DHT22;17446;48.022;-1.740;2022-12-18T05:30:13;1.80;99.90
30694;DHT22;17446;48.022;-1.740;2022-12-18T05:32:39;1.80;99.90
30694;DHT22;17446;48.022;-1.740;2022-12-18T05:35:06;1.80;99.90
30694;DHT22;17446;48.022;-1.740;2022-12-18T05:37:33;1.80;99.90
30694;DHT22;17446;48.022;-1.740;2022-12-18T05:39:58;1.80;99.90
30694;DHT22;17446;48.022;-1.740;2022-12-18T05:42:24;1.90;99.90
30694;DHT22;17446;48.022;-1.740;2022-12-18T05:44:50;1.90;99.90
30694;DHT22;17446;48.022;-1.740;2022-12-18T05:47:15;1.80;99.90
30694;DHT22;17446;48.022;-1.740;2022-12-18T05:49:41;1.90;99.90
30694;DHT22;17446;48.022;-1.740;2022-12-18T05:52:07;1.90;99.90
30694;DHT22;17446;48.022;-1.740;2022-12-18T05:54:32;1.90;99.90
30694;DHT22;17446;48.022;-1.740;2022-12-18T05:56:58;1.90;99.90
30694;DHT22;17446;48.022;-1.740;2022-12-18T05:59:24;1.90;99.90
30694;DHT22;17446;48.022;-1.740;2022-12-18T06:01:50;1.90;99.90
30694;DHT22;17446;48.022;-1.740;2022-12-18T06:04:15;1.90;99.90
30694;DHT22;17446;48.022;-1.740;2022-12-18T06:06:41;2.00;99.90
30694;DHT22;17446;48.022;-1.740;2022-12-18T06:09:06;2.00;99.90
30694;DHT22;17446;48.022;-1.740;2022-12-18T06:11:35;2.00;99.90
30694;DHT22;17446;48.022;-1.740;2022-12-18T06:14:03;2.10;99.90
30694;DHT22;17446;48.022;-1.740;2022-12-18T06:16:30;2.10;99.90
30694;DHT22;17446;48.022;-1.740;2022-12-18T06:18:59;2.10;99.90
30694;DHT22;17446;48.022;-1.740;2022-12-18T06:21:26;2.20;99.90
30694;DHT22;17446;48.022;-1.740;2022-12-18T06:23:52;2.20;99.90
30694;DHT22;17446;48.022;-1.740;2022-12-18T06:26:18;2.20;99.90
30694;DHT22;17446;48.022;-1.740;2022-12-18T06:28:43;2.20;99.90
30694;DHT22;17446;48.022;-1.740;2022-12-18T06:31:10;2.30;99.90
30694;DHT22;17446;48.022;-1.740;2022-12-18T06:33:36;2.30;99.90
30694;DHT22;17446;48.022;-1.740;2022-12-18T06:36:11;2.30;99.90
30694;DHT22;17446;48.022;-1.740;2022-12-18T06:38:39;2.40;99.90
30694;DHT22;17446;48.022;-1.740;2022-12-18T06:41:14;2.40;99.90
30694;DHT22;17446;48.022;-1.740;2022-12-18T06:43:40;2.50;99.90
30694;DHT22;17446;48.022;-1.740;2022-12-18T06:46:06;2.50;99.90
30694;DHT22;17446;48.022;-1.740;2022-12-18T06:48:32;2.50;99.90
30694;DHT22;17446;48.022;-1.740;2022-12-18T06:50:58;2.60;99.90
30694;DHT22;17446;48.022;-1.740;2022-12-18T06:53:23;2.60;99.90
30694;DHT22;17446;48.022;-1.740;2022-12-18T06:55:49;2.60;99.90
30694;DHT22;17446;48.022;-1.740;2022-12-18T06:58:15;2.70;99.90
30694;DHT22;17446;48.022;-1.740;2022-12-18T07:00:41;2.70;99.90
30694;DHT22;17446;48.022;-1.740;2022-12-18T07:03:07;2.70;99.90
30694;DHT22;17446;48.022;-1.740;2022-12-18T07:05:32;2.80;99.90
30694;DHT22;17446;48.022;-1.740;2022-12-18T07:07:58;2.80;99.90
30694;DHT22;17446;48.022;-1.740;2022-12-18T07:10:24;2.80;99.90
30694;DHT22;17446;48.022;-1.740;2022-12-18T07:12:50;2.90;99.90
30694;DHT22;17446;48.022;-1.740;2022-12-18T07:15:15;2.80;99.90
30694;DHT22;17446;48.022;-1.740;2022-12-18T07:17:41;2.90;99.90
30694;DHT22;17446;48.022;-1.740;2022-12-18T07:20:07;2.90;99.90
30694;DHT22;17446;48.022;-1.740;2022-12-18T07:22:33;2.90;99.90
30694;DHT22;17446;48.022;-1.740;2022-12-18T07:24:59;2.90;99.90
30694;DHT22;17446;48.022;-1.740;2022-12-18T07:27:24;3.00;99.90
30694;DHT22;17446;48.022;-1.740;2022-12-18T07:29:50;3.00;99.90
30694;DHT22;17446;48.022;-1.740;2022-12-18T07:32:16;3.00;99.90
30694;DHT22;17446;48.022;-1.740;2022-12-18T07:34:41;3.00;99.90
30694;DHT22;17446;48.022;-1.740;2022-12-18T07:37:07;3.00;99.90
30694;DHT22;17446;48.022;-1.740;2022-12-18T07:39:32;3.10;99.90
30694;DHT22;17446;48.022;-1.740;2022-12-18T07:41:58;3.10;99.90
30694;DHT22;17446;48.022;-1.740;2022-12-18T07:44:42;3.10;99.90
30694;DHT22;17446;48.022;-1.740;2022-12-18T07:47:08;3.10;99.90
30694;DHT22;17446;48.022;-1.740;2022-12-18T07:49:33;3.20;99.90
30694;DHT22;17446;48.022;-1.740;2022-12-18T07:51:59;3.20;99.90
30694;DHT22;17446;48.022;-1.740;2022-12-18T07:54:25;3.20;99.90
30694;DHT22;17446;48.022;-1.740;2022-12-18T07:56:51;3.20;99.90
30694;DHT22;17446;48.022;-1.740;2022-12-18T07:59:18;3.20;99.90
30694;DHT22;17446;48.022;-1.740;2022-12-18T08:01:44;3.30;99.90
30694;DHT22;17446;48.022;-1.740;2022-12-18T08:04:09;3.20;99.90
30694;DHT22;17446;48.022;-1.740;2022-12-18T08:06:35;3.30;99.90
30694;DHT22;17446;48.022;-1.740;2022-12-18T08:09:01;3.30;99.90
30694;DHT22;17446;48.022;-1.740;2022-12-18T08:11:28;3.30;99.90
30694;DHT22;17446;48.022;-1.740;2022-12-18T08:13:54;3.30;99.90
30694;DHT22;17446;48.022;-1.740;2022-12-18T08:16:21;3.30;99.90
30694;DHT22;17446;48.022;-1.740;2022-12-18T08:18:47;3.40;99.90
30694;DHT22;17446;48.022;-1.740;2022-12-18T08:21:16;3.40;99.90
30694;DHT22;17446;48.022;-1.740;2022-12-18T08:23:42;3.40;99.90
30694;DHT22;17446;48.022;-1.740;2022-12-18T08:26:08;3.40;99.90
30694;DHT22;17446;48.022;-1.740;2022-12-18T08:28:34;3.40;99.90
30694;DHT22;17446;48.022;-1.740;2022-12-18T08:31:00;3.40;99.90
30694;DHT22;17446;48.022;-1.740;2022-12-18T08:33:26;3.40;99.90
30694;DHT22;17446;48.022;-1.740;2022-12-18T08:35:52;3.40;99.90
30694;DHT22;17446;48.022;-1.740;2022-12-18T08:38:18;3.50;99.90
30694;DHT22;17446;48.022;-1.740;2022-12-18T08:40:43;3.50;99.90
30694;DHT22;17446;48.022;-1.740;2022-12-18T08:43:10;3.50;99.90
30694;DHT22;17446;48.022;-1.740;2022-12-18T08:45:54;3.50;99.90
30694;DHT22;17446;48.022;-1.740;2022-12-18T08:48:21;3.60;99.90
30694;DHT22;17446;48.022;-1.740;2022-12-18T08:50:56;3.50;99.90
30694;DHT22;17446;48.022;-1.740;2022-12-18T08:53:26;3.50;99.90
30694;DHT22;17446;48.022;-1.740;2022-12-18T08:55:52;3.60;99.90
30694;DHT22;17446;48.022;-1.740;2022-12-18T08:58:18;3.60;99.90
30694;DHT22;17446;48.022;-1.740;2022-12-18T09:00:44;3.60;99.90
30694;DHT22;17446;48.022;-1.740;2022-12-18T09:03:17;3.70;99.90
30694;DHT22;17446;48.022;-1.740;2022-12-18T09:05:43;3.70;99.90
30694;DHT22;17446;48.022;-1.740;2022-12-18T09:08:09;3.70;99.90
30694;DHT22;17446;48.022;-1.740;2022-12-18T09:10:40;3.70;99.90
30694;DHT22;17446;48.022;-1.740;2022-12-18T09:13:06;3.80;99.90
30694;DHT22;17446;48.022;-1.740;2022-12-18T09:15:32;3.80;99.90
30694;DHT22;17446;48.022;-1.740;2022-12-18T09:17:57;3.90;99.90
30694;DHT22;17446;48.022;-1.740;2022-12-18T09:20:23;3.90;99.90
30694;DHT22;17446;48.022;-1.740;2022-12-18T09:22:49;4.00;99.90
30694;DHT22;17446;48.022;-1.740;2022-12-18T09:25:15;4.00;99.90
30694;DHT22;17446;48.022;-1.740;2022-12-18T09:27:40;4.00;99.90
30694;DHT22;17446;48.022;-1.740;2022-12-18T09:30:07;4.10;99.90
30694;DHT22;17446;48.022;-1.740;2022-12-18T09:32:32;4.10;99.90
30694;DHT22;17446;48.022;-1.740;2022-12-18T09:34:58;4.10;99.90
30694;DHT22;17446;48.022;-1.740;2022-12-18T09:37:24;4.20;99.90
30694;DHT22;17446;48.022;-1.740;2022-12-18T09:39:50;4.20;99.90
30694;DHT22;17446;48.022;-1.740;2022-12-18T09:42:20;4.30;99.90
30694;DHT22;17446;48.022;-1.740;2022-12-18T09:44:50;4.20;99.90
30694;DHT22;17446;48.022;-1.740;2022-12-18T09:49:53;4.20;99.90
30694;DHT22;17446;48.022;-1.740;2022-12-18T09:55:03;4.30;99.90
30694;DHT22;17446;48.022;-1.740;2022-12-18T09:57:33;4.20;99.90
30694;DHT22;17446;48.022;-1.740;2022-12-18T10:00:19;4.20;99.90
30694;DHT22;17446;48.022;-1.740;2022-12-18T10:02:46;4.20;99.90
30694;DHT22;17446;48.022;-1.740;2022-12-18T10:05:37;4.20;99.90
30694;DHT22;17446;48.022;-1.740;2022-12-18T10:08:33;4.20;99.90
30694;DHT22;17446;48.022;-1.740;2022-12-18T10:13:52;4.20;99.90
30694;DHT22;17446;48.022;-1.740;2022-12-18T10:16:34;4.20;99.90
30694;DHT22;17446;48.022;-1.740;2022-12-18T10:25:03;4.30;99.90
30694;DHT22;17446;48.022;-1.740;2022-12-18T10:27:30;4.30;99.90
30694;DHT22;17446;48.022;-1.740;2022-12-18T10:29:57;4.30;99.90
30694;DHT22;17446;48.022;-1.740;2022-12-18T10:32:25;4.40;99.90
30694;DHT22;17446;48.022;-1.740;2022-12-18T10:34:53;4.40;99.90
30694;DHT22;17446;48.022;-1.740;2022-12-18T10:37:23;4.40;99.90
30694;DHT22;17446;48.022;-1.740;2022-12-18T10:40:13;4.40;99.90
30694;DHT22;17446;48.022;-1.740;2022-12-18T10:42:40;4.40;99.90
30694;DHT22;17446;48.022;-1.740;2022-12-18T10:45:15;4.40;99.90
30694;DHT22;17446;48.022;-1.740;2022-12-18T10:47:46;4.40;99.90
30694;DHT22;17446;48.022;-1.740;2022-12-18T10:50:26;4.50;99.90
30694;DHT22;17446;48.022;-1.740;2022-12-18T10:52:56;4.50;99.90
30694;DHT22;17446;48.022;-1.740;2022-12-18T10:55:22;4.50;99.90
30694;DHT22;17446;48.022;-1.740;2022-12-18T10:57:49;4.50;99.90
30694;DHT22;17446;48.022;-1.740;2022-12-18T11:00:28;4.50;99.90
30694;DHT22;17446;48.022;-1.740;2022-12-18T11:02:55;4.50;99.90
30694;DHT22;17446;48.022;-1.740;2022-12-18T11:07:50;4.60;99.90
30694;DHT22;17446;48.022;-1.740;2022-12-18T11:10:18;4.60;99.90
30694;DHT22;17446;48.022;-1.740;2022-12-18T11:12:44;4.60;99.90
30694;DHT22;17446;48.022;-1.740;2022-12-18T11:15:20;4.60;99.90
30694;DHT22;17446;48.022;-1.740;2022-12-18T11:17:56;4.70;99.90
30694;DHT22;17446;48.022;-1.740;2022-12-18T11:23:00;4.70;99.90
30694;DHT22;17446;48.022;-1.740;2022-12-18T11:25:27;4.80;99.90
30694;DHT22;17446;48.022;-1.740;2022-12-18T11:27:59;4.80;99.90
30694;DHT22;17446;48.022;-1.740;2022-12-18T11:33:20;4.80;99.90
30694;DHT22;17446;48.022;-1.740;2022-12-18T11:35:52;4.90;99.90
30694;DHT22;17446;48.022;-1.740;2022-12-18T11:38:28;4.90;99.90
30694;DHT22;17446;48.022;-1.740;2022-12-18T11:43:31;4.90;99.90
30694;DHT22;17446;48.022;-1.740;2022-12-18T11:46:26;5.00;99.90
30694;DHT22;17446;48.022;-1.740;2022-12-18T11:49:03;5.00;99.90
30694;DHT22;17446;48.022;-1.740;2022-12-18T11:54:34;5.00;99.90
30694;DHT22;17446;48.022;-1.740;2022-12-18T12:00:01;5.10;99.90
30694;DHT22;17446;48.022;-1.740;2022-12-18T12:10:56;5.30;99.90
30694;DHT22;17446;48.022;-1.740;2022-12-18T12:21:46;5.40;99.90
30694;DHT22;17446;48.022;-1.740;2022-12-18T12:24:39;5.40;99.90
30694;DHT22;17446;48.022;-1.740;2022-12-18T12:30:22;5.50;99.90
30694;DHT22;17446;48.022;-1.740;2022-12-18T12:38:40;5.60;99.90
30694;DHT22;17446;48.022;-1.740;2022-12-18T12:41:11;5.70;99.90
30694;DHT22;17446;48.022;-1.740;2022-12-18T12:43:58;5.70;99.90
30694;DHT22;17446;48.022;-1.740;2022-12-18T12:46:25;5.70;99.90
30694;DHT22;17446;48.022;-1.740;2022-12-18T12:48:56;5.80;99.90
30694;DHT22;17446;48.022;-1.740;2022-12-18T12:51:33;5.80;99.90
30694;DHT22;17446;48.022;-1.740;2022-12-18T12:54:02;5.80;99.90
30694;DHT22;17446;48.022;-1.740;2022-12-18T12:59:26;6.00;99.90
30694;DHT22;17446;48.022;-1.740;2022-12-18T13:05:38;6.20;99.90
30694;DHT22;17446;48.022;-1.740;2022-12-18T13:07:49;6.30;99.90
30694;DHT22;17446;48.022;-1.740;2022-12-18T13:13:17;6.50;99.90
30694;DHT22;17446;48.022;-1.740;2022-12-18T13:16:06;6.60;99.90
30694;DHT22;17446;48.022;-1.740;2022-12-18T13:18:32;6.60;99.90
30694;DHT22;17446;48.022;-1.740;2022-12-18T13:23:26;6.70;99.90
30694;DHT22;17446;48.022;-1.740;2022-12-18T13:34:21;6.90;99.90
30694;DHT22;17446;48.022;-1.740;2022-12-18T13:36:48;6.90;99.90
30694;DHT22;17446;48.022;-1.740;2022-12-18T13:41:41;6.90;99.90
30694;DHT22;17446;48.022;-1.740;2022-12-18T13:46:53;6.90;99.90
30694;DHT22;17446;48.022;-1.740;2022-12-18T13:49:41;6.90;99.90
30694;DHT22;17446;48.022;-1.740;2022-12-18T13:52:19;6.90;99.90
30694;DHT22;17446;48.022;-1.740;2022-12-18T13:54:58;6.90;99.90
30694;DHT22;17446;48.022;-1.740;2022-12-18T13:57:38;6.90;99.90
30694;DHT22;17446;48.022;-1.740;2022-12-18T14:02:48;6.90;99.90
30694;DHT22;17446;48.022;-1.740;2022-12-18T14:05:32;6.80;99.90
30694;DHT22;17446;48.022;-1.740;2022-12-18T14:08:05;6.80;99.90
30694;DHT22;17446;48.022;-1.740;2022-12-18T14:10:32;6.90;99.90
30694;DHT22;17446;48.022;-1.740;2022-12-18T14:13:05;6.80;99.90
30694;DHT22;17446;48.022;-1.740;2022-12-18T14:15:40;6.80;99.90
30694;DHT22;17446;48.022;-1.740;2022-12-18T14:20:35;6.90;99.90
30694;DHT22;17446;48.022;-1.740;2022-12-18T14:23:01;6.90;99.90
30694;DHT22;17446;48.022;-1.740;2022-12-18T14:25:30;6.90;99.90
30694;DHT22;17446;48.022;-1.740;2022-12-18T14:28:12;6.90;99.90
30694;DHT22;17446;48.022;-1.740;2022-12-18T14:30:41;6.90;99.90
30694;DHT22;17446;48.022;-1.740;2022-12-18T14:33:25;7.00;99.90
30694;DHT22;17446;48.022;-1.740;2022-12-18T14:40:52;7.00;99.90
30694;DHT22;17446;48.022;-1.740;2022-12-18T14:43:18;7.10;99.90
30694;DHT22;17446;48.022;-1.740;2022-12-18T14:45:44;7.10;99.90
30694;DHT22;17446;48.022;-1.740;2022-12-18T14:50:37;7.10;99.90
30694;DHT22;17446;48.022;-1.740;2022-12-18T14:53:03;7.20;99.90
30694;DHT22;17446;48.022;-1.740;2022-12-18T14:55:29;7.20;99.90
30694;DHT22;17446;48.022;-1.740;2022-12-18T14:57:56;7.20;99.90
30694;DHT22;17446;48.022;-1.740;2022-12-18T15:00:24;7.20;99.90
30694;DHT22;17446;48.022;-1.740;2022-12-18T15:02:54;7.20;99.90
30694;DHT22;17446;48.022;-1.740;2022-12-18T15:05:30;7.20;99.90
30694;DHT22;17446;48.022;-1.740;2022-12-18T15:07:58;7.20;99.90
30694;DHT22;17446;48.022;-1.740;2022-12-18T15:10:29;7.30;99.90
30694;DHT22;17446;48.022;-1.740;2022-12-18T15:17:59;7.30;99.90
30694;DHT22;17446;48.022;-1.740;2022-12-18T15:20:27;7.30;99.90
30694;DHT22;17446;48.022;-1.740;2022-12-18T15:22:56;7.40;99.90
30694;DHT22;17446;48.022;-1.740;2022-12-18T15:25:34;7.30;99.90
30694;DHT22;17446;48.022;-1.740;2022-12-18T15:28:02;7.30;99.90
30694;DHT22;17446;48.022;-1.740;2022-12-18T15:30:28;7.30;99.90
30694;DHT22;17446;48.022;-1.740;2022-12-18T15:33:22;7.30;99.90
30694;DHT22;17446;48.022;-1.740;2022-12-18T15:35:56;7.30;99.90
30694;DHT22;17446;48.022;-1.740;2022-12-18T15:38:22;7.30;99.90
30694;DHT22;17446;48.022;-1.740;2022-12-18T15:40:48;7.30;99.90
30694;DHT22;17446;48.022;-1.740;2022-12-18T15:43:13;7.30;99.90
30694;DHT22;17446;48.022;-1.740;2022-12-18T15:45:58;7.30;99.90
30694;DHT22;17446;48.022;-1.740;2022-12-18T15:48:23;7.30;99.90
30694;DHT22;17446;48.022;-1.740;2022-12-18T15:50:54;7.30;99.90
30694;DHT22;17446;48.022;-1.740;2022-12-18T15:53:23;7.30;99.90
30694;DHT22;17446;48.022;-1.740;2022-12-18T15:55:48;7.30;99.90
30694;DHT22;17446;48.022;-1.740;2022-12-18T15:58:34;7.30;99.90
30694;DHT22;17446;48.022;-1.740;2022-12-18T16:01:00;7.30;99.90
30694;DHT22;17446;48.022;-1.740;2022-12-18T16:03:26;7.30;99.90
30694;DHT22;17446;48.022;-1.740;2022-12-18T16:05:52;7.30;99.90
30694;DHT22;17446;48.022;-1.740;2022-12-18T16:08:18;7.30;99.90
30694;DHT22;17446;48.022;-1.740;2022-12-18T16:10:43;7.30;99.90
30694;DHT22;17446;48.022;-1.740;2022-12-18T16:13:10;7.30;99.90
30694;DHT22;17446;48.022;-1.740;2022-12-18T16:15:37;7.40;99.90
30694;DHT22;17446;48.022;-1.740;2022-12-18T16:18:02;7.40;99.90
30694;DHT22;17446;48.022;-1.740;2022-12-18T16:20:28;7.40;99.90
30694;DHT22;17446;48.022;-1.740;2022-12-18T16:22:54;7.40;99.90
30694;DHT22;17446;48.022;-1.740;2022-12-18T16:25:27;7.40;99.90
30694;DHT22;17446;48.022;-1.740;2022-12-18T16:27:54;7.50;99.90
30694;DHT22;17446;48.022;-1.740;2022-12-18T16:30:28;7.50;99.90
30694;DHT22;17446;48.022;-1.740;2022-12-18T16:32:56;7.50;99.90
30694;DHT22;17446;48.022;-1.740;2022-12-18T16:35:22;7.50;99.90
30694;DHT22;17446;48.022;-1.740;2022-12-18T16:37:48;7.50;99.90
30694;DHT22;17446;48.022;-1.740;2022-12-18T16:40:16;7.50;99.90
30694;DHT22;17446;48.022;-1.740;2022-12-18T16:42:43;7.60;99.90
30694;DHT22;17446;48.022;-1.740;2022-12-18T16:45:12;7.60;99.90
30694;DHT22;17446;48.022;-1.740;2022-12-18T16:47:38;7.60;99.90
30694;DHT22;17446;48.022;-1.740;2022-12-18T16:50:05;7.70;99.90
30694;DHT22;17446;48.022;-1.740;2022-12-18T16:52:31;7.70;99.90
30694;DHT22;17446;48.022;-1.740;2022-12-18T16:54:57;7.70;99.90
30694;DHT22;17446;48.022;-1.740;2022-12-18T16:57:23;7.70;99.90
30694;DHT22;17446;48.022;-1.740;2022-12-18T16:59:49;7.70;99.90
30694;DHT22;17446;48.022;-1.740;2022-12-18T17:02:17;7.80;99.90
30694;DHT22;17446;48.022;-1.740;2022-12-18T17:04:43;7.80;99.90
30694;DHT22;17446;48.022;-1.740;2022-12-18T17:07:10;7.80;99.90
30694;DHT22;17446;48.022;-1.740;2022-12-18T17:09:36;7.90;99.90
30694;DHT22;17446;48.022;-1.740;2022-12-18T17:12:03;7.80;99.90
30694;DHT22;17446;48.022;-1.740;2022-12-18T17:14:28;7.90;99.90
30694;DHT22;17446;48.022;-1.740;2022-12-18T17:16:54;7.90;99.90
30694;DHT22;17446;48.022;-1.740;2022-12-18T17:19:22;7.90;99.90
30694;DHT22;17446;48.022;-1.740;2022-12-18T17:21:49;7.90;99.90
30694;DHT22;17446;48.022;-1.740;2022-12-18T17:24:15;8.00;99.90
30694;DHT22;17446;48.022;-1.740;2022-12-18T17:26:41;7.90;99.90
30694;DHT22;17446;48.022;-1.740;2022-12-18T17:29:12;8.00;99.90
30694;DHT22;17446;48.022;-1.740;2022-12-18T17:31:38;8.00;99.90
30694;DHT22;17446;48.022;-1.740;2022-12-18T17:34:03;8.00;99.90
30694;DHT22;17446;48.022;-1.740;2022-12-18T17:36:30;8.00;99.90
30694;DHT22;17446;48.022;-1.740;2022-12-18T17:38:58;8.00;99.90
30694;DHT22;17446;48.022;-1.740;2022-12-18T17:41:25;8.10;99.90
30694;DHT22;17446;48.022;-1.740;2022-12-18T17:46:17;8.10;99.90
30694;DHT22;17446;48.022;-1.740;2022-12-18T17:48:43;8.10;99.90
30694;DHT22;17446;48.022;-1.740;2022-12-18T17:51:09;8.10;99.90